sensor_id;sensor_type;location;lat;lon;timestamp;P1;durP1;ratioP1;P2;durP2;ratioP2
34930;SDS011;21134;49.646;8.560;2022-09-13T00:01:31;1.40;;;0.87;;
34930;SDS011;21134;49.646;8.560;2022-09-13T00:03:57;0.73;;;0.70;;
34930;SDS011;21134;49.646;8.560;2022-09-13T00:06:24;0.57;;;0.57;;
34930;SDS011;21134;49.646;8.560;2022-09-13T00:08:50;1.73;;;1.23;;
34930;SDS011;21134;49.646;8.560;2022-09-13T00:11:19;1.83;;;1.30;;
34930;SDS011;21134;49.646;8.560;2022-09-13T00:13:48;3.03;;;1.47;;
34930;SDS011;21134;49.646;8.560;2022-09-13T00:16:16;0.90;;;0.80;;
34930;SDS011;21134;49.646;8.560;2022-09-13T00:18:44;1.47;;;1.20;;
34930;SDS011;21134;49.646;8.560;2022-09-13T00:21:12;2.77;;;1.37;;
34930;SDS011;21134;49.646;8.560;2022-09-13T00:23:42;0.93;;;0.90;;
34930;SDS011;21134;49.646;8.560;2022-09-13T00:26:10;3.13;;;1.30;;
34930;SDS011;21134;49.646;8.560;2022-09-13T00:28:38;1.60;;;1.47;;
34930;SDS011;21134;49.646;8.560;2022-09-13T00:31:07;2.63;;;1.77;;
34930;SDS011;21134;49.646;8.560;2022-09-13T00:33:34;0.60;;;0.60;;
34930;SDS011;21134;49.646;8.560;2022-09-13T00:36:02;1.03;;;0.93;;
34930;SDS011;21134;49.646;8.560;2022-09-13T00:38:30;1.43;;;1.20;;
34930;SDS011;21134;49.646;8.560;2022-09-13T00:40:56;2.10;;;1.03;;
34930;SDS011;21134;49.646;8.560;2022-09-13T00:43:39;1.80;;;1.37;;
34930;SDS011;21134;49.646;8.560;2022-09-13T00:46:08;10.97;;;1.40;;
34930;SDS011;21134;49.646;8.560;2022-09-13T00:48:38;10.97;;;1.80;;
34930;SDS011;21134;49.646;8.560;2022-09-13T00:51:05;9.17;;;1.27;;
34930;SDS011;21134;49.646;8.560;2022-09-13T00:53:35;1.17;;;0.70;;
34930;SDS011;21134;49.646;8.560;2022-09-13T00:56:06;2.57;;;1.73;;
34930;SDS011;21134;49.646;8.560;2022-09-13T00:58:37;1.50;;;1.33;;
34930;SDS011;21134;49.646;8.560;2022-09-13T01:01:09;1.53;;;1.37;;
34930;SDS011;21134;49.646;8.560;2022-09-13T01:03:38;3.33;;;1.40;;
34930;SDS011;21134;49.646;8.560;2022-09-13T01:06:07;2.87;;;1.83;;
34930;SDS011;21134;49.646;8.560;2022-09-13T01:08:38;2.50;;;1.43;;
34930;SDS011;21134;49.646;8.560;2022-09-13T01:11:09;1.73;;;1.43;;
34930;SDS011;21134;49.646;8.560;2022-09-13T01:13:41;1.47;;;1.37;;
34930;SDS011;21134;49.646;8.560;2022-09-13T01:16:10;2.87;;;1.43;;
34930;SDS011;21134;49.646;8.560;2022-09-13T01:18:36;2.93;;;1.27;;
34930;SDS011;21134;49.646;8.560;2022-09-13T01:21:10;1.43;;;0.93;;
34930;SDS011;21134;49.646;8.560;2022-09-13T01:24:04;1.97;;;1.40;;
34930;SDS011;21134;49.646;8.560;2022-09-13T01:26:59;1.80;;;1.10;;
34930;SDS011;21134;49.646;8.560;2022-09-13T01:29:57;0.60;;;0.60;;
34930;SDS011;21134;49.646;8.560;2022-09-13T01:32:39;2.80;;;1.10;;
34930;SDS011;21134;49.646;8.560;2022-09-13T01:35:20;1.50;;;1.17;;
34930;SDS011;21134;49.646;8.560;2022-09-13T01:37:55;1.60;;;1.33;;
34930;SDS011;21134;49.646;8.560;2022-09-13T01:40:35;2.77;;;1.30;;
34930;SDS011;21134;49.646;8.560;2022-09-13T01:43:14;0.97;;;0.90;;
34930;SDS011;21134;49.646;8.560;2022-09-13T01:45:52;1.77;;;1.63;;
34930;SDS011;21134;49.646;8.560;2022-09-13T01:48:30;3.00;;;1.30;;
34930;SDS011;21134;49.646;8.560;2022-09-13T01:51:03;3.83;;;1.93;;
34930;SDS011;21134;49.646;8.560;2022-09-13T01:53:35;2.77;;;1.30;;
34930;SDS011;21134;49.646;8.560;2022-09-13T01:56:15;1.27;;;1.10;;
34930;SDS011;21134;49.646;8.560;2022-09-13T01:58:50;0.70;;;0.63;;
34930;SDS011;21134;49.646;8.560;2022-09-13T02:01:24;0.83;;;0.67;;
34930;SDS011;21134;49.646;8.560;2022-09-13T02:03:56;1.37;;;0.93;;
34930;SDS011;21134;49.646;8.560;2022-09-13T02:06:29;1.70;;;1.07;;
34930;SDS011;21134;49.646;8.560;2022-09-13T02:08:59;2.33;;;1.40;;
34930;SDS011;21134;49.646;8.560;2022-09-13T02:11:30;6.37;;;2.10;;
34930;SDS011;21134;49.646;8.560;2022-09-13T02:14:01;1.83;;;1.13;;
34930;SDS011;21134;49.646;8.560;2022-09-13T02:16:33;2.33;;;1.13;;
34930;SDS011;21134;49.646;8.560;2022-09-13T02:19:05;0.90;;;0.80;;
34930;SDS011;21134;49.646;8.560;2022-09-13T02:21:38;12.73;;;1.20;;
34930;SDS011;21134;49.646;8.560;2022-09-13T02:24:10;1.00;;;0.80;;
34930;SDS011;21134;49.646;8.560;2022-09-13T02:26:41;1.37;;;0.83;;
34930;SDS011;21134;49.646;8.560;2022-09-13T02:29:11;2.83;;;1.40;;
34930;SDS011;21134;49.646;8.560;2022-09-13T02:31:44;2.10;;;1.17;;
34930;SDS011;21134;49.646;8.560;2022-09-13T02:34:17;1.27;;;0.93;;
34930;SDS011;21134;49.646;8.560;2022-09-13T02:36:46;1.37;;;1.27;;
34930;SDS011;21134;49.646;8.560;2022-09-13T02:39:16;1.63;;;1.00;;
34930;SDS011;21134;49.646;8.560;2022-09-13T02:41:47;0.77;;;0.77;;
34930;SDS011;21134;49.646;8.560;2022-09-13T02:44:21;2.87;;;1.87;;
34930;SDS011;21134;49.646;8.560;2022-09-13T02:46:59;1.70;;;1.27;;
34930;SDS011;21134;49.646;8.560;2022-09-13T02:49:37;1.87;;;1.17;;
34930;SDS011;21134;49.646;8.560;2022-09-13T02:52:11;3.17;;;1.40;;
34930;SDS011;21134;49.646;8.560;2022-09-13T02:54:47;1.17;;;0.83;;
34930;SDS011;21134;49.646;8.560;2022-09-13T02:57:19;10.07;;;0.77;;
34930;SDS011;21134;49.646;8.560;2022-09-13T02:59:52;1.73;;;1.33;;
34930;SDS011;21134;49.646;8.560;2022-09-13T03:02:20;1.00;;;0.93;;
34930;SDS011;21134;49.646;8.560;2022-09-13T03:04:50;12.43;;;1.60;;
34930;SDS011;21134;49.646;8.560;2022-09-13T03:07:17;1.47;;;1.07;;
34930;SDS011;21134;49.646;8.560;2022-09-13T03:09:45;1.60;;;1.50;;
34930;SDS011;21134;49.646;8.560;2022-09-13T03:12:20;1.37;;;1.03;;
34930;SDS011;21134;49.646;8.560;2022-09-13T03:14:55;4.00;;;1.77;;
34930;SDS011;21134;49.646;8.560;2022-09-13T03:17:35;1.30;;;1.20;;
34930;SDS011;21134;49.646;8.560;2022-09-13T03:20:12;2.60;;;1.30;;
34930;SDS011;21134;49.646;8.560;2022-09-13T03:22:53;0.70;;;0.70;;
34930;SDS011;21134;49.646;8.560;2022-09-13T03:25:36;1.43;;;1.33;;
34930;SDS011;21134;49.646;8.560;2022-09-13T03:28:20;1.70;;;1.23;;
34930;SDS011;21134;49.646;8.560;2022-09-13T03:30:56;2.10;;;1.50;;
34930;SDS011;21134;49.646;8.560;2022-09-13T03:33:31;2.57;;;0.70;;
34930;SDS011;21134;49.646;8.560;2022-09-13T03:36:08;4.73;;;1.17;;
34930;SDS011;21134;49.646;8.560;2022-09-13T03:38:40;2.20;;;1.00;;
34930;SDS011;21134;49.646;8.560;2022-09-13T03:41:11;1.37;;;0.77;;
34930;SDS011;21134;49.646;8.560;2022-09-13T03:43:43;1.60;;;1.27;;
34930;SDS011;21134;49.646;8.560;2022-09-13T03:46:14;6.87;;;1.67;;
34930;SDS011;21134;49.646;8.560;2022-09-13T03:48:47;1.43;;;1.07;;
34930;SDS011;21134;49.646;8.560;2022-09-13T03:51:15;4.73;;;1.33;;
34930;SDS011;21134;49.646;8.560;2022-09-13T03:53:49;0.90;;;0.90;;
34930;SDS011;21134;49.646;8.560;2022-09-13T03:56:21;2.70;;;1.60;;
34930;SDS011;21134;49.646;8.560;2022-09-13T03:58:47;1.97;;;1.30;;
34930;SDS011;21134;49.646;8.560;2022-09-13T04:01:15;2.30;;;1.00;;
34930;SDS011;21134;49.646;8.560;2022-09-13T04:03:44;1.83;;;1.33;;
34930;SDS011;21134;49.646;8.560;2022-09-13T04:06:12;2.63;;;1.80;;
34930;SDS011;21134;49.646;8.560;2022-09-13T04:08:38;2.47;;;1.87;;
34930;SDS011;21134;49.646;8.560;2022-09-13T04:11:05;1.60;;;1.50;;
34930;SDS011;21134;49.646;8.560;2022-09-13T04:13:33;2.17;;;1.43;;
34930;SDS011;21134;49.646;8.560;2022-09-13T04:16:00;0.67;;;0.60;;
34930;SDS011;21134;49.646;8.560;2022-09-13T04:18:27;1.53;;;0.90;;
34930;SDS011;21134;49.646;8.560;2022-09-13T04:20:54;1.50;;;1.40;;
34930;SDS011;21134;49.646;8.560;2022-09-13T04:23:23;4.47;;;1.23;;
34930;SDS011;21134;49.646;8.560;2022-09-13T04:25:51;2.57;;;1.57;;
34930;SDS011;21134;49.646;8.560;2022-09-13T04:28:18;2.47;;;1.00;;
34930;SDS011;21134;49.646;8.560;2022-09-13T04:30:47;2.30;;;1.30;;
34930;SDS011;21134;49.646;8.560;2022-09-13T04:33:15;4.07;;;1.63;;
34930;SDS011;21134;49.646;8.560;2022-09-13T04:35:42;2.60;;;1.70;;
34930;SDS011;21134;49.646;8.560;2022-09-13T04:38:08;2.20;;;1.33;;
34930;SDS011;21134;49.646;8.560;2022-09-13T04:40:36;1.77;;;1.20;;
34930;SDS011;21134;49.646;8.560;2022-09-13T04:43:03;2.17;;;1.43;;
34930;SDS011;21134;49.646;8.560;2022-09-13T04:45:30;1.03;;;1.03;;
34930;SDS011;21134;49.646;8.560;2022-09-13T04:47:56;2.73;;;1.40;;
34930;SDS011;21134;49.646;8.560;2022-09-13T04:50:23;2.50;;;1.10;;
34930;SDS011;21134;49.646;8.560;2022-09-13T04:52:50;6.03;;;1.67;;
34930;SDS011;21134;49.646;8.560;2022-09-13T04:55:19;1.30;;;1.03;;
34930;SDS011;21134;49.646;8.560;2022-09-13T04:57:48;3.57;;;2.17;;
34930;SDS011;21134;49.646;8.560;2022-09-13T05:00:18;1.33;;;1.10;;
34930;SDS011;21134;49.646;8.560;2022-09-13T05:02:45;2.03;;;1.57;;
34930;SDS011;21134;49.646;8.560;2022-09-13T05:05:11;3.17;;;1.47;;
34930;SDS011;21134;49.646;8.560;2022-09-13T05:07:38;2.30;;;1.73;;
34930;SDS011;21134;49.646;8.560;2022-09-13T05:10:05;1.63;;;1.30;;
34930;SDS011;21134;49.646;8.560;2022-09-13T05:12:33;1.43;;;0.90;;
34930;SDS011;21134;49.646;8.560;2022-09-13T05:15:00;2.30;;;1.50;;
34930;SDS011;21134;49.646;8.560;2022-09-13T05:17:28;3.57;;;2.10;;
34930;SDS011;21134;49.646;8.560;2022-09-13T05:19:55;2.50;;;1.37;;
34930;SDS011;21134;49.646;8.560;2022-09-13T05:22:21;2.13;;;1.07;;
34930;SDS011;21134;49.646;8.560;2022-09-13T05:24:48;2.83;;;1.80;;
34930;SDS011;21134;49.646;8.560;2022-09-13T05:27:14;1.60;;;1.50;;
34930;SDS011;21134;49.646;8.560;2022-09-13T05:29:41;1.63;;;1.33;;
34930;SDS011;21134;49.646;8.560;2022-09-13T05:32:09;3.13;;;1.60;;
34930;SDS011;21134;49.646;8.560;2022-09-13T05:34:35;2.50;;;1.97;;
34930;SDS011;21134;49.646;8.560;2022-09-13T05:37:02;6.93;;;1.53;;
34930;SDS011;21134;49.646;8.560;2022-09-13T05:39:29;1.30;;;1.20;;
34930;SDS011;21134;49.646;8.560;2022-09-13T05:41:56;8.33;;;1.33;;
34930;SDS011;21134;49.646;8.560;2022-09-13T05:44:23;2.63;;;1.70;;
34930;SDS011;21134;49.646;8.560;2022-09-13T05:46:49;2.03;;;1.83;;
34930;SDS011;21134;49.646;8.560;2022-09-13T05:49:17;9.30;;;1.00;;
34930;SDS011;21134;49.646;8.560;2022-09-13T05:51:43;3.80;;;1.50;;
34930;SDS011;21134;49.646;8.560;2022-09-13T05:54:10;13.47;;;1.90;;
34930;SDS011;21134;49.646;8.560;2022-09-13T05:56:37;2.57;;;2.20;;
34930;SDS011;21134;49.646;8.560;2022-09-13T05:59:04;24.03;;;2.60;;
34930;SDS011;21134;49.646;8.560;2022-09-13T06:01:30;2.83;;;1.67;;
34930;SDS011;21134;49.646;8.560;2022-09-13T06:03:57;2.83;;;1.63;;
34930;SDS011;21134;49.646;8.560;2022-09-13T06:06:26;3.93;;;1.97;;
34930;SDS011;21134;49.646;8.560;2022-09-13T06:08:52;1.97;;;1.30;;
34930;SDS011;21134;49.646;8.560;2022-09-13T06:11:20;2.30;;;1.87;;
34930;SDS011;21134;49.646;8.560;2022-09-13T06:13:47;3.40;;;2.17;;
34930;SDS011;21134;49.646;8.560;2022-09-13T06:16:14;5.87;;;2.00;;
34930;SDS011;21134;49.646;8.560;2022-09-13T06:18:41;3.43;;;1.77;;
34930;SDS011;21134;49.646;8.560;2022-09-13T06:21:08;2.30;;;1.67;;
34930;SDS011;21134;49.646;8.560;2022-09-13T06:23:38;5.80;;;2.60;;
34930;SDS011;21134;49.646;8.560;2022-09-13T06:26:06;1.67;;;1.53;;
34930;SDS011;21134;49.646;8.560;2022-09-13T06:28:34;1.23;;;1.03;;
34930;SDS011;21134;49.646;8.560;2022-09-13T06:31:01;3.43;;;1.53;;
34930;SDS011;21134;49.646;8.560;2022-09-13T06:33:30;2.50;;;1.57;;
34930;SDS011;21134;49.646;8.560;2022-09-13T06:35:59;2.27;;;1.80;;
34930;SDS011;21134;49.646;8.560;2022-09-13T06:38:26;3.53;;;1.87;;
34930;SDS011;21134;49.646;8.560;2022-09-13T06:40:59;1.97;;;1.27;;
34930;SDS011;21134;49.646;8.560;2022-09-13T06:43:26;3.90;;;2.03;;
34930;SDS011;21134;49.646;8.560;2022-09-13T06:45:57;9.10;;;1.70;;
34930;SDS011;21134;49.646;8.560;2022-09-13T06:48:24;3.37;;;1.63;;
34930;SDS011;21134;49.646;8.560;2022-09-13T06:50:51;3.80;;;1.43;;
34930;SDS011;21134;49.646;8.560;2022-09-13T06:53:17;5.20;;;2.27;;
34930;SDS011;21134;49.646;8.560;2022-09-13T06:55:44;7.37;;;2.20;;
34930;SDS011;21134;49.646;8.560;2022-09-13T06:58:12;4.77;;;1.90;;
34930;SDS011;21134;49.646;8.560;2022-09-13T07:00:38;7.83;;;2.57;;
34930;SDS011;21134;49.646;8.560;2022-09-13T07:03:05;3.33;;;2.33;;
34930;SDS011;21134;49.646;8.560;2022-09-13T07:05:31;7.37;;;2.63;;
34930;SDS011;21134;49.646;8.560;2022-09-13T07:07:58;4.53;;;2.23;;
34930;SDS011;21134;49.646;8.560;2022-09-13T07:10:24;2.07;;;1.90;;
34930;SDS011;21134;49.646;8.560;2022-09-13T07:12:50;3.15;;;2.17;;
34930;SDS011;21134;49.646;8.560;2022-09-13T07:15:18;5.33;;;2.87;;
34930;SDS011;21134;49.646;8.560;2022-09-13T07:17:45;2.22;;;1.58;;
34930;SDS011;21134;49.646;8.560;2022-09-13T07:20:11;4.63;;;2.80;;
34930;SDS011;21134;49.646;8.560;2022-09-13T07:22:37;3.23;;;2.20;;
34930;SDS011;21134;49.646;8.560;2022-09-13T07:25:04;3.40;;;2.00;;
34930;SDS011;21134;49.646;8.560;2022-09-13T07:27:31;5.43;;;2.20;;
34930;SDS011;21134;49.646;8.560;2022-09-13T07:29:58;4.50;;;2.30;;
34930;SDS011;21134;49.646;8.560;2022-09-13T07:32:26;2.23;;;1.93;;
34930;SDS011;21134;49.646;8.560;2022-09-13T07:34:52;3.20;;;2.23;;
34930;SDS011;21134;49.646;8.560;2022-09-13T07:37:18;3.93;;;2.20;;
34930;SDS011;21134;49.646;8.560;2022-09-13T07:39:45;3.22;;;2.03;;
34930;SDS011;21134;49.646;8.560;2022-09-13T07:42:12;5.03;;;1.83;;
34930;SDS011;21134;49.646;8.560;2022-09-13T07:44:39;3.10;;;1.63;;
34930;SDS011;21134;49.646;8.560;2022-09-13T07:47:05;2.17;;;1.53;;
34930;SDS011;21134;49.646;8.560;2022-09-13T07:49:33;4.72;;;2.40;;
34930;SDS011;21134;49.646;8.560;2022-09-13T07:52:00;3.10;;;2.00;;
34930;SDS011;21134;49.646;8.560;2022-09-13T07:54:26;3.65;;;2.17;;
34930;SDS011;21134;49.646;8.560;2022-09-13T07:56:54;6.47;;;2.17;;
34930;SDS011;21134;49.646;8.560;2022-09-13T07:59:20;4.93;;;2.50;;
34930;SDS011;21134;49.646;8.560;2022-09-13T08:01:47;6.28;;;2.63;;
34930;SDS011;21134;49.646;8.560;2022-09-13T08:04:16;2.90;;;2.10;;
34930;SDS011;21134;49.646;8.560;2022-09-13T08:06:46;3.83;;;2.20;;
34930;SDS011;21134;49.646;8.560;2022-09-13T08:09:14;2.58;;;2.03;;
34930;SDS011;21134;49.646;8.560;2022-09-13T08:11:41;2.50;;;1.90;;
34930;SDS011;21134;49.646;8.560;2022-09-13T08:14:09;4.50;;;2.35;;
34930;SDS011;21134;49.646;8.560;2022-09-13T08:16:38;3.25;;;2.47;;
34930;SDS011;21134;49.646;8.560;2022-09-13T08:19:06;3.17;;;1.77;;
34930;SDS011;21134;49.646;8.560;2022-09-13T08:21:35;9.82;;;2.97;;
34930;SDS011;21134;49.646;8.560;2022-09-13T08:24:06;4.18;;;2.25;;
34930;SDS011;21134;49.646;8.560;2022-09-13T08:26:37;6.40;;;3.47;;
34930;SDS011;21134;49.646;8.560;2022-09-13T08:29:04;2.85;;;2.22;;
34930;SDS011;21134;49.646;8.560;2022-09-13T08:31:32;4.40;;;2.35;;
34930;SDS011;21134;49.646;8.560;2022-09-13T08:33:59;2.90;;;2.20;;
34930;SDS011;21134;49.646;8.560;2022-09-13T08:36:26;6.80;;;2.30;;
34930;SDS011;21134;49.646;8.560;2022-09-13T08:38:55;4.55;;;2.88;;
34930;SDS011;21134;49.646;8.560;2022-09-13T08:41:32;4.30;;;3.00;;
34930;SDS011;21134;49.646;8.560;2022-09-13T08:44:17;3.65;;;1.95;;
34930;SDS011;21134;49.646;8.560;2022-09-13T08:46:51;3.25;;;2.40;;
34930;SDS011;21134;49.646;8.560;2022-09-13T08:49:21;2.95;;;2.20;;
34930;SDS011;21134;49.646;8.560;2022-09-13T08:51:52;13.43;;;2.13;;
34930;SDS011;21134;49.646;8.560;2022-09-13T08:54:21;3.92;;;2.10;;
34930;SDS011;21134;49.646;8.560;2022-09-13T08:56:50;5.63;;;2.25;;
34930;SDS011;21134;49.646;8.560;2022-09-13T08:59:25;3.97;;;2.60;;
34930;SDS011;21134;49.646;8.560;2022-09-13T09:02:09;3.13;;;2.08;;
34930;SDS011;21134;49.646;8.560;2022-09-13T09:04:48;3.53;;;2.30;;
34930;SDS011;21134;49.646;8.560;2022-09-13T09:07:22;4.07;;;1.77;;
34930;SDS011;21134;49.646;8.560;2022-09-13T09:09:52;4.00;;;1.88;;
34930;SDS011;21134;49.646;8.560;2022-09-13T09:12:26;2.90;;;1.90;;
34930;SDS011;21134;49.646;8.560;2022-09-13T09:14:58;1.70;;;1.48;;
34930;SDS011;21134;49.646;8.560;2022-09-13T09:17:29;4.63;;;2.28;;
34930;SDS011;21134;49.646;8.560;2022-09-13T09:20:07;2.28;;;1.73;;
34930;SDS011;21134;49.646;8.560;2022-09-13T09:22:41;18.48;;;2.17;;
34930;SDS011;21134;49.646;8.560;2022-09-13T09:25:10;7.45;;;2.20;;
34930;SDS011;21134;49.646;8.560;2022-09-13T09:27:38;3.92;;;2.40;;
34930;SDS011;21134;49.646;8.560;2022-09-13T09:30:05;5.03;;;2.22;;
34930;SDS011;21134;49.646;8.560;2022-09-13T09:33:02;2.13;;;1.83;;
34930;SDS011;21134;49.646;8.560;2022-09-13T09:35:43;3.40;;;2.05;;
34930;SDS011;21134;49.646;8.560;2022-09-13T09:38:21;2.92;;;1.65;;
34930;SDS011;21134;49.646;8.560;2022-09-13T09:40:57;9.35;;;1.60;;
34930;SDS011;21134;49.646;8.560;2022-09-13T09:43:30;2.00;;;1.58;;
34930;SDS011;21134;49.646;8.560;2022-09-13T09:46:02;2.78;;;1.88;;
34930;SDS011;21134;49.646;8.560;2022-09-13T09:48:34;3.30;;;2.10;;
34930;SDS011;21134;49.646;8.560;2022-09-13T09:51:05;3.90;;;2.45;;
34930;SDS011;21134;49.646;8.560;2022-09-13T09:53:36;3.78;;;2.40;;
34930;SDS011;21134;49.646;8.560;2022-09-13T09:56:12;3.88;;;2.00;;
34930;SDS011;21134;49.646;8.560;2022-09-13T09:58:47;5.00;;;2.15;;
34930;SDS011;21134;49.646;8.560;2022-09-13T10:01:15;3.35;;;2.20;;
34930;SDS011;21134;49.646;8.560;2022-09-13T10:03:49;8.43;;;2.95;;
34930;SDS011;21134;49.646;8.560;2022-09-13T10:06:19;3.08;;;1.70;;
34930;SDS011;21134;49.646;8.560;2022-09-13T10:08:52;12.27;;;2.80;;
34930;SDS011;21134;49.646;8.560;2022-09-13T10:11:24;3.15;;;1.80;;
34930;SDS011;21134;49.646;8.560;2022-09-13T10:14:05;2.88;;;2.45;;
34930;SDS011;21134;49.646;8.560;2022-09-13T10:16:31;2.60;;;1.85;;
34930;SDS011;21134;49.646;8.560;2022-09-13T10:21:58;3.50;;;2.22;;
34930;SDS011;21134;49.646;8.560;2022-09-13T10:24:25;2.95;;;2.65;;
34930;SDS011;21134;49.646;8.560;2022-09-13T10:26:53;3.08;;;2.05;;
34930;SDS011;21134;49.646;8.560;2022-09-13T10:29:21;5.40;;;2.67;;
34930;SDS011;21134;49.646;8.560;2022-09-13T10:31:49;6.45;;;2.58;;
34930;SDS011;21134;49.646;8.560;2022-09-13T10:34:19;7.53;;;1.90;;
34930;SDS011;21134;49.646;8.560;2022-09-13T10:36:50;2.40;;;2.20;;
34930;SDS011;21134;49.646;8.560;2022-09-13T10:39:21;4.38;;;2.13;;
34930;SDS011;21134;49.646;8.560;2022-09-13T10:41:50;3.08;;;2.40;;
34930;SDS011;21134;49.646;8.560;2022-09-13T10:44:26;4.05;;;2.47;;
34930;SDS011;21134;49.646;8.560;2022-09-13T10:46:57;6.72;;;1.73;;
34930;SDS011;21134;49.646;8.560;2022-09-13T10:49:43;6.70;;;2.67;;
34930;SDS011;21134;49.646;8.560;2022-09-13T10:52:32;3.22;;;2.53;;
34930;SDS011;21134;49.646;8.560;2022-09-13T10:57:56;2.28;;;1.98;;
34930;SDS011;21134;49.646;8.560;2022-09-13T11:00:41;4.45;;;2.20;;
34930;SDS011;21134;49.646;8.560;2022-09-13T11:03:31;7.15;;;1.70;;
34930;SDS011;21134;49.646;8.560;2022-09-13T11:06:13;3.25;;;2.22;;
34930;SDS011;21134;49.646;8.560;2022-09-13T11:08:47;5.38;;;1.45;;
34930;SDS011;21134;49.646;8.560;2022-09-13T11:11:22;2.03;;;1.60;;
34930;SDS011;21134;49.646;8.560;2022-09-13T11:14:00;2.25;;;1.67;;
34930;SDS011;21134;49.646;8.560;2022-09-13T11:16:43;4.53;;;1.95;;
34930;SDS011;21134;49.646;8.560;2022-09-13T11:19:21;2.63;;;1.98;;
34930;SDS011;21134;49.646;8.560;2022-09-13T11:22:08;2.67;;;1.83;;
34930;SDS011;21134;49.646;8.560;2022-09-13T11:24:54;2.00;;;1.55;;
34930;SDS011;21134;49.646;8.560;2022-09-13T11:27:29;2.55;;;2.10;;
34930;SDS011;21134;49.646;8.560;2022-09-13T11:30:12;1.20;;;1.10;;
34930;SDS011;21134;49.646;8.560;2022-09-13T11:32:54;1.65;;;1.50;;
34930;SDS011;21134;49.646;8.560;2022-09-13T11:35:35;3.83;;;2.20;;
34930;SDS011;21134;49.646;8.560;2022-09-13T11:38:12;3.35;;;1.80;;
34930;SDS011;21134;49.646;8.560;2022-09-13T11:40:53;1.90;;;1.73;;
34930;SDS011;21134;49.646;8.560;2022-09-13T11:46:20;2.50;;;1.80;;
34930;SDS011;21134;49.646;8.560;2022-09-13T11:52:05;2.60;;;2.20;;
34930;SDS011;21134;49.646;8.560;2022-09-13T11:54:42;2.88;;;1.95;;
34930;SDS011;21134;49.646;8.560;2022-09-13T11:57:18;3.05;;;2.15;;
34930;SDS011;21134;49.646;8.560;2022-09-13T11:59:50;3.50;;;1.77;;
34930;SDS011;21134;49.646;8.560;2022-09-13T12:02:23;1.92;;;1.70;;
34930;SDS011;21134;49.646;8.560;2022-09-13T12:04:57;2.22;;;1.60;;
34930;SDS011;21134;49.646;8.560;2022-09-13T12:07:30;8.65;;;2.53;;
34930;SDS011;21134;49.646;8.560;2022-09-13T12:10:05;2.63;;;2.20;;
34930;SDS011;21134;49.646;8.560;2022-09-13T12:12:41;2.25;;;1.80;;
34930;SDS011;21134;49.646;8.560;2022-09-13T12:15:13;3.55;;;1.98;;
34930;SDS011;21134;49.646;8.560;2022-09-13T12:17:43;1.95;;;1.70;;
34930;SDS011;21134;49.646;8.560;2022-09-13T12:20:14;4.43;;;2.45;;
34930;SDS011;21134;49.646;8.560;2022-09-13T12:22:46;2.17;;;1.83;;
34930;SDS011;21134;49.646;8.560;2022-09-13T12:25:17;3.58;;;2.42;;
34930;SDS011;21134;49.646;8.560;2022-09-13T12:27:47;6.32;;;3.20;;
34930;SDS011;21134;49.646;8.560;2022-09-13T12:30:21;5.72;;;2.15;;
34930;SDS011;21134;49.646;8.560;2022-09-13T12:32:49;3.67;;;2.63;;
34930;SDS011;21134;49.646;8.560;2022-09-13T12:35:21;2.70;;;1.98;;
34930;SDS011;21134;49.646;8.560;2022-09-13T12:37:57;5.03;;;2.25;;
34930;SDS011;21134;49.646;8.560;2022-09-13T12:43:51;11.05;;;3.38;;
34930;SDS011;21134;49.646;8.560;2022-09-13T12:46:45;5.53;;;2.38;;
34930;SDS011;21134;49.646;8.560;2022-09-13T12:49:36;4.22;;;3.05;;
34930;SDS011;21134;49.646;8.560;2022-09-13T12:55:24;3.70;;;2.30;;
34930;SDS011;21134;49.646;8.560;2022-09-13T12:58:05;2.92;;;2.20;;
34930;SDS011;21134;49.646;8.560;2022-09-13T13:00:57;4.60;;;2.50;;
34930;SDS011;21134;49.646;8.560;2022-09-13T13:03:34;3.22;;;2.20;;
34930;SDS011;21134;49.646;8.560;2022-09-13T13:06:09;7.30;;;2.40;;
34930;SDS011;21134;49.646;8.560;2022-09-13T13:08:48;5.25;;;2.83;;
34930;SDS011;21134;49.646;8.560;2022-09-13T13:11:18;7.68;;;1.98;;
34930;SDS011;21134;49.646;8.560;2022-09-13T13:13:52;2.13;;;1.92;;
34930;SDS011;21134;49.646;8.560;2022-09-13T13:16:24;2.75;;;1.67;;
34930;SDS011;21134;49.646;8.560;2022-09-13T13:18:53;1.95;;;1.58;;
34930;SDS011;21134;49.646;8.560;2022-09-13T13:21:23;9.02;;;1.70;;
34930;SDS011;21134;49.646;8.560;2022-09-13T13:27:34;2.72;;;1.73;;
34930;SDS011;21134;49.646;8.560;2022-09-13T13:33:14;4.28;;;1.50;;
34930;SDS011;21134;49.646;8.560;2022-09-13T13:35:44;3.20;;;1.90;;
34930;SDS011;21134;49.646;8.560;2022-09-13T13:38:13;1.30;;;1.20;;
34930;SDS011;21134;49.646;8.560;2022-09-13T13:40:44;2.25;;;1.95;;
34930;SDS011;21134;49.646;8.560;2022-09-13T13:43:28;2.72;;;1.65;;
34930;SDS011;21134;49.646;8.560;2022-09-13T13:45:57;2.10;;;1.52;;
34930;SDS011;21134;49.646;8.560;2022-09-13T13:48:45;2.55;;;1.73;;
34930;SDS011;21134;49.646;8.560;2022-09-13T13:51:16;1.73;;;1.60;;
34930;SDS011;21134;49.646;8.560;2022-09-13T13:53:49;2.15;;;1.42;;
34930;SDS011;21134;49.646;8.560;2022-09-13T13:56:20;1.63;;;1.52;;
34930;SDS011;21134;49.646;8.560;2022-09-13T13:58:55;1.63;;;1.40;;
34930;SDS011;21134;49.646;8.560;2022-09-13T14:01:26;1.00;;;1.00;;
34930;SDS011;21134;49.646;8.560;2022-09-13T14:04:04;1.00;;;1.00;;
34930;SDS011;21134;49.646;8.560;2022-09-13T14:06:59;4.63;;;1.25;;
34930;SDS011;21134;49.646;8.560;2022-09-13T14:09:34;1.05;;;0.93;;
34930;SDS011;21134;49.646;8.560;2022-09-13T14:12:19;1.63;;;1.27;;
34930;SDS011;21134;49.646;8.560;2022-09-13T14:15:10;1.27;;;1.08;;
34930;SDS011;21134;49.646;8.560;2022-09-13T14:21:03;2.42;;;1.55;;
34930;SDS011;21134;49.646;8.560;2022-09-13T14:23:42;2.13;;;1.77;;
34930;SDS011;21134;49.646;8.560;2022-09-13T14:26:09;4.63;;;1.67;;
34930;SDS011;21134;49.646;8.560;2022-09-13T14:28:38;1.33;;;1.23;;
34930;SDS011;21134;49.646;8.560;2022-09-13T14:31:06;1.35;;;1.25;;
34930;SDS011;21134;49.646;8.560;2022-09-13T14:33:34;1.23;;;1.13;;
34930;SDS011;21134;49.646;8.560;2022-09-13T14:36:03;2.00;;;1.52;;
34930;SDS011;21134;49.646;8.560;2022-09-13T14:38:32;0.80;;;0.80;;
34930;SDS011;21134;49.646;8.560;2022-09-13T14:41:01;1.35;;;1.25;;
34930;SDS011;21134;49.646;8.560;2022-09-13T14:43:39;1.40;;;1.15;;
34930;SDS011;21134;49.646;8.560;2022-09-13T14:46:06;1.75;;;1.55;;
34930;SDS011;21134;49.646;8.560;2022-09-13T14:48:39;1.30;;;1.20;;
34930;SDS011;21134;49.646;8.560;2022-09-13T14:51:12;1.70;;;1.52;;
34930;SDS011;21134;49.646;8.560;2022-09-13T14:53:43;8.98;;;1.67;;
34930;SDS011;21134;49.646;8.560;2022-09-13T14:56:14;1.52;;;1.38;;
34930;SDS011;21134;49.646;8.560;2022-09-13T14:58:46;1.88;;;1.17;;
34930;SDS011;21134;49.646;8.560;2022-09-13T15:01:16;4.97;;;1.38;;
34930;SDS011;21134;49.646;8.560;2022-09-13T15:03:45;2.70;;;1.55;;
34930;SDS011;21134;49.646;8.560;2022-09-13T15:06:21;1.60;;;1.33;;
34930;SDS011;21134;49.646;8.560;2022-09-13T15:08:49;4.95;;;2.42;;
34930;SDS011;21134;49.646;8.560;2022-09-13T15:11:28;4.53;;;1.73;;
34930;SDS011;21134;49.646;8.560;2022-09-13T15:14:02;8.25;;;2.55;;
34930;SDS011;21134;49.646;8.560;2022-09-13T15:16:48;5.07;;;2.20;;
34930;SDS011;21134;49.646;8.560;2022-09-13T15:19:25;3.70;;;2.25;;
34930;SDS011;21134;49.646;8.560;2022-09-13T15:22:13;7.50;;;1.40;;
34930;SDS011;21134;49.646;8.560;2022-09-13T15:24:44;2.33;;;2.13;;
34930;SDS011;21134;49.646;8.560;2022-09-13T15:27:17;3.92;;;1.65;;
34930;SDS011;21134;49.646;8.560;2022-09-13T15:29:51;1.58;;;1.45;;
34930;SDS011;21134;49.646;8.560;2022-09-13T15:32:20;1.90;;;1.30;;
34930;SDS011;21134;49.646;8.560;2022-09-13T15:34:48;4.07;;;2.00;;
34930;SDS011;21134;49.646;8.560;2022-09-13T15:37:15;3.58;;;2.58;;
34930;SDS011;21134;49.646;8.560;2022-09-13T15:39:45;3.83;;;2.47;;
34930;SDS011;21134;49.646;8.560;2022-09-13T15:42:13;2.10;;;1.45;;
34930;SDS011;21134;49.646;8.560;2022-09-13T15:44:40;3.28;;;1.70;;